createdAt,value
2022-10-28T00:01:28.346Z,99328.78
2022-10-28T00:03:56.843Z,99324.63
2022-10-28T00:06:25.511Z,99338.28
2022-10-28T00:08:52.610Z,99331.22
2022-10-28T00:11:20.872Z,99329.13
2022-10-28T00:13:48.140Z,99327.66
2022-10-28T00:16:17.342Z,99319.94
2022-10-28T00:18:44.850Z,99323.66
2022-10-28T00:21:16.593Z,99320.34
2022-10-28T00:23:43.714Z,99315.78
2022-10-28T00:26:13.174Z,99317.84
2022-10-28T00:28:41.345Z,99319.88
2022-10-28T00:31:09.231Z,99323.59
2022-10-28T00:33:36.724Z,99321.13
2022-10-28T00:36:14.977Z,99317.78
2022-10-28T00:38:42.997Z,99312.75
2022-10-28T00:41:11.202Z,99313.78
2022-10-28T00:43:40.514Z,99315.84
2022-10-28T00:46:14.760Z,99318.56
2022-10-28T00:48:43.446Z,99322.25
2022-10-28T00:51:10.673Z,99324.13
2022-10-28T00:53:39.887Z,99328.69
2022-10-28T00:56:08.647Z,99328.84
2022-10-28T00:58:35.828Z,99319.94
2022-10-28T01:01:03.257Z,99321.81
2022-10-28T01:03:30.616Z,99321.81
2022-10-28T01:05:57.771Z,99326.75
2022-10-28T01:08:24.924Z,99321.38
2022-10-28T01:11:00.737Z,99322.38
2022-10-28T01:13:34.246Z,99325.09
2022-10-28T01:16:13.212Z,99316.34
2022-10-28T01:18:52.987Z,99308.47
2022-10-28T01:21:32.911Z,99313.84
2022-10-28T01:24:18.896Z,99311.38
2022-10-28T01:26:45.953Z,99308.03
2022-10-28T01:29:15.770Z,99310.06
2022-10-28T01:31:50.138Z,99291.63
2022-10-28T01:34:36.024Z,99297.38
2022-10-28T01:37:21.891Z,99298.41
2022-10-28T01:39:51.929Z,99298.56
2022-10-28T01:42:27.604Z,99302.31
2022-10-28T01:44:57.716Z,99290.06
2022-10-28T01:47:26.825Z,99293.13
2022-10-28T01:49:53.839Z,99298.69
2022-10-28T01:52:23.638Z,99297.25
2022-10-28T01:55:01.383Z,99308.38
2022-10-28T01:57:29.684Z,99298.63
2022-10-28T01:59:57.426Z,99297.78
2022-10-28T02:02:24.932Z,99290.75
2022-10-28T02:04:51.957Z,99285.56
2022-10-28T02:07:19.026Z,99285.56
2022-10-28T02:10:09.972Z,99287.41
2022-10-28T02:12:38.031Z,99285.56
2022-10-28T02:15:05.075Z,99283.91
2022-10-28T02:17:50.805Z,99281.19
2022-10-28T02:20:27.247Z,99274.16
2022-10-28T02:23:03.866Z,99277.84
2022-10-28T02:25:51.121Z,99275.34
2022-10-28T02:28:22.548Z,99271.81
2022-10-28T02:30:52.736Z,99284.47
2022-10-28T02:33:22.879Z,99277.41
2022-10-28T02:35:56.042Z,99274.91
2022-10-28T02:38:26.286Z,99279.47
2022-10-28T02:40:54.921Z,99281.31
2022-10-28T02:43:23.480Z,99277.78
2022-10-28T02:45:52.548Z,99275.09
2022-10-28T02:48:22.160Z,99273.44
2022-10-28T02:50:54.009Z,99273.59
2022-10-28T02:53:24.383Z,99277.34
2022-10-28T02:55:54.921Z,99259.53
2022-10-28T02:58:22.341Z,99268.22
2022-10-28T03:00:49.889Z,99258.50
2022-10-28T03:03:17.187Z,99259.53
2022-10-28T03:05:44.495Z,99255.16
2022-10-28T03:08:11.528Z,99248.94
2022-10-28T03:10:38.554Z,99255.34
2022-10-28T03:13:05.594Z,99258.22
2022-10-28T03:15:32.654Z,99262.78
2022-10-28T03:17:59.703Z,99263.59
2022-10-28T03:20:26.783Z,99269.00
2022-10-28T03:22:53.978Z,99258.22
2022-10-28T03:25:21.209Z,99257.38
2022-10-28T03:27:48.235Z,99260.91
2022-10-28T03:30:15.348Z,99261.13
2022-10-28T03:32:42.883Z,99263.81
2022-10-28T03:35:10.313Z,99256.78
2022-10-28T03:37:37.369Z,99256.94
2022-10-28T03:40:07.910Z,99249.06
2022-10-28T03:42:37.561Z,99254.44
2022-10-28T03:45:07.969Z,99253.59
2022-10-28T03:47:35.338Z,99254.63
2022-10-28T03:50:02.511Z,99262.69
2022-10-28T03:52:29.567Z,99259.19
2022-10-28T03:54:56.594Z,99257.72
2022-10-28T03:57:23.702Z,99256.03
2022-10-28T03:59:50.811Z,99253.53
2022-10-28T04:02:17.929Z,99257.72
2022-10-28T04:04:45.089Z,99257.72
2022-10-28T04:07:12.191Z,99263.09
2022-10-28T04:09:39.272Z,99266.81
2022-10-28T04:12:06.807Z,99261.97
2022-10-28T04:14:33.916Z,99268.59
2022-10-28T04:17:01.125Z,99274.97
2022-10-28T04:19:28.232Z,99277.03
2022-10-28T04:21:55.266Z,99267.50
2022-10-28T04:24:22.371Z,99266.66
2022-10-28T04:26:49.667Z,99260.44
2022-10-28T04:29:17.017Z,99254.22
2022-10-28T04:31:45.526Z,99257.75
2022-10-28T04:34:14.629Z,99251.53
2022-10-28T04:36:41.736Z,99248.84
2022-10-28T04:39:09.625Z,99254.69
2022-10-28T04:41:36.699Z,99254.25
2022-10-28T04:44:03.857Z,99253.41
2022-10-28T04:46:30.866Z,99249.88
2022-10-28T04:48:58.033Z,99244.69
2022-10-28T04:51:25.074Z,99246.09
2022-10-28T04:53:52.109Z,99249.16
2022-10-28T04:56:19.185Z,99237.28
2022-10-28T04:58:47.299Z,99235.94
2022-10-28T05:01:14.463Z,99236.16
2022-10-28T05:03:41.569Z,99244.16
2022-10-28T05:06:08.596Z,99245.53
2022-10-28T05:08:35.709Z,99246.69
2022-10-28T05:11:02.775Z,99243.38
2022-10-28T05:13:29.874Z,99239.22
2022-10-28T05:15:57.023Z,99246.44
2022-10-28T05:18:24.203Z,99239.38
2022-10-28T05:20:54.780Z,99244.31
2022-10-28T05:23:25.802Z,99241.31
2022-10-28T05:25:55.713Z,99241.91
2022-10-28T05:28:22.797Z,99244.59
2022-10-28T05:30:49.946Z,99240.69
2022-10-28T05:33:16.973Z,99243.38
2022-10-28T05:35:44.059Z,99236.16
2022-10-28T05:38:11.325Z,99238.56
2022-10-28T05:40:38.394Z,99240.13
2022-10-28T05:43:05.542Z,99238.84
2022-10-28T05:45:32.687Z,99236.34
2022-10-28T05:47:59.705Z,99238.47
2022-10-28T05:50:26.785Z,99231.06
2022-10-28T05:52:57.550Z,99243.47
2022-10-28T05:55:27.742Z,99250.22
2022-10-28T05:57:55.813Z,99245.41
2022-10-28T06:00:24.645Z,99244.13
2022-10-28T06:02:52.070Z,99243.66
2022-10-28T06:05:19.520Z,99240.50
2022-10-28T06:07:46.600Z,99240.50
2022-10-28T06:10:13.760Z,99255.59
2022-10-28T06:12:39.343Z,99267.81
2022-10-28T06:15:06.561Z,99265.63
2022-10-28T06:17:34.579Z,99268.59
2022-10-28T06:20:02.651Z,99272.56
2022-10-28T06:22:29.713Z,99271.53
2022-10-28T06:24:56.819Z,99272.19
2022-10-28T06:27:23.856Z,99271.81
2022-10-28T06:29:50.859Z,99281.56
2022-10-28T06:32:17.939Z,99280.53
2022-10-28T06:34:45.011Z,99284.53
2022-10-28T06:37:12.831Z,99284.72
2022-10-28T06:39:41.962Z,99282.03
2022-10-28T06:42:09.046Z,99291.56
2022-10-28T06:44:36.075Z,99291.88
2022-10-28T06:47:04.715Z,99302.88
2022-10-28T06:49:31.818Z,99306.22
2022-10-28T06:51:58.897Z,99314.13
2022-10-28T06:54:25.978Z,99313.06
2022-10-28T06:56:53.274Z,99317.44
2022-10-28T06:59:20.376Z,99313.59
2022-10-28T07:01:47.563Z,99315.44
2022-10-28T07:04:14.883Z,99317.09
2022-10-28T07:06:42.029Z,99323.78
2022-10-28T07:09:13.020Z,99326.28
2022-10-28T07:11:40.689Z,99324.44
2022-10-28T07:14:07.749Z,99326.28
2022-10-28T07:16:34.881Z,99328.78
2022-10-28T07:19:02.045Z,99331.84
2022-10-28T07:21:29.873Z,99335.19
2022-10-28T07:23:56.969Z,99334.84
2022-10-28T07:26:24.514Z,99338.16
2022-10-28T07:28:51.710Z,99348.72
2022-10-28T07:31:19.107Z,99352.06
2022-10-28T07:33:52.029Z,99343.81
2022-10-28T07:36:19.164Z,99353.34
2022-10-28T07:38:48.395Z,99356.53
2022-10-28T07:41:15.466Z,99366.28
2022-10-28T07:43:42.552Z,99385.94
2022-10-28T07:46:09.761Z,99379.91
2022-10-28T07:48:37.261Z,99376.84
2022-10-28T07:51:05.719Z,99376.28
2022-10-28T07:53:33.163Z,99362.44
2022-10-28T07:56:01.846Z,99367.28
2022-10-28T07:58:28.992Z,99373.50
2022-10-28T08:00:56.103Z,99364.03
2022-10-28T08:03:31.097Z,99363.66
2022-10-28T08:06:06.803Z,99365.97
2022-10-28T08:08:34.408Z,99369.97
2022-10-28T08:11:19.092Z,99369.56
2022-10-28T08:13:46.386Z,99368.47
2022-10-28T08:16:13.473Z,99355.25
2022-10-28T08:18:41.020Z,99356.56
2022-10-28T08:21:09.475Z,99365.38
2022-10-28T08:23:38.243Z,99363.78
2022-10-28T08:26:05.709Z,99377.13
2022-10-28T08:28:33.001Z,99370.31
2022-10-28T08:31:09.099Z,99374.31
2022-10-28T08:33:38.119Z,99366.06
2022-10-28T08:36:06.002Z,99363.44
2022-10-28T08:38:33.448Z,99372.69
2022-10-28T08:41:06.569Z,99368.59
2022-10-28T08:43:56.826Z,99379.88
2022-10-28T08:46:33.090Z,99373.44
2022-10-28T08:49:02.073Z,99382.84
2022-10-28T08:51:44.477Z,99378.16
2022-10-28T08:54:20.576Z,99390.81
2022-10-28T08:56:48.941Z,99392.59
2022-10-28T08:59:21.651Z,99389.94
2022-10-28T09:01:57.370Z,99403.16
2022-10-28T09:04:24.416Z,99418.28
2022-10-28T09:06:51.474Z,99418.72
2022-10-28T09:09:20.815Z,99420.78
2022-10-28T09:11:50.997Z,99417.06
2022-10-28T09:14:25.751Z,99423.53
2022-10-28T09:16:55.578Z,99426.25
2022-10-28T09:19:35.081Z,99411.25
2022-10-28T09:22:20.762Z,99411.19
2022-10-28T09:24:51.375Z,99412.31
2022-10-28T09:27:30.491Z,99422.97
2022-10-28T09:29:57.481Z,99422.13
2022-10-28T09:32:36.822Z,99432.78
2022-10-28T09:35:13.280Z,99426.13
2022-10-28T09:37:44.510Z,99436.31
2022-10-28T09:40:24.037Z,99439.84
2022-10-28T09:42:57.093Z,99442.38
2022-10-28T09:45:27.281Z,99444.44
2022-10-28T09:47:57.335Z,99440.44
2022-10-28T09:50:28.454Z,99446.63
2022-10-28T09:52:55.460Z,99451.03
2022-10-28T09:55:23.177Z,99454.50
2022-10-28T09:57:52.072Z,99461.53
2022-10-28T10:00:19.655Z,99460.28
2022-10-28T10:02:46.988Z,99464.19
2022-10-28T10:05:17.092Z,99462.31
2022-10-28T10:07:46.501Z,99460.78
2022-10-28T10:10:15.989Z,99465.28
2022-10-28T10:12:44.331Z,99459.66
2022-10-28T10:15:17.605Z,99458.44
2022-10-28T10:17:45.828Z,99452.56
2022-10-28T10:20:14.407Z,99453.00
2022-10-28T10:22:42.660Z,99451.25
2022-10-28T10:25:18.765Z,99458.25
2022-10-28T10:27:53.326Z,99461.91
2022-10-28T10:30:47.136Z,99456.94
2022-10-28T10:33:19.879Z,99451.69
2022-10-28T10:35:56.584Z,99459.75
2022-10-28T10:38:28.187Z,99465.13
2022-10-28T10:40:55.524Z,99471.34
2022-10-28T10:43:35.816Z,99477.03
2022-10-28T10:46:04.575Z,99479.69
2022-10-28T10:48:36.631Z,99477.25
2022-10-28T10:51:09.952Z,99465.84
2022-10-28T10:53:38.315Z,99470.50
2022-10-28T10:56:08.418Z,99471.91
2022-10-28T10:58:37.751Z,99470.16
2022-10-28T11:01:07.281Z,99473.25
2022-10-28T11:03:49.008Z,99472.00
2022-10-28T11:06:28.390Z,99474.47
2022-10-28T11:09:19.555Z,99461.13
2022-10-28T11:11:46.703Z,99458.06
2022-10-28T11:14:13.778Z,99451.72
2022-10-28T11:16:47.484Z,99447.81
2022-10-28T11:19:33.292Z,99432.59
2022-10-28T11:22:03.104Z,99427.91
2022-10-28T11:24:39.216Z,99413.44
2022-10-28T11:27:08.986Z,99398.16
2022-10-28T11:29:36.192Z,99393.66
2022-10-28T11:32:21.739Z,99372.97
2022-10-28T11:35:00.988Z,99349.66
2022-10-28T11:37:44.533Z,99333.34
2022-10-28T11:40:27.684Z,99314.66
2022-10-28T11:43:09.794Z,99302.81
2022-10-28T11:46:02.998Z,99274.44
2022-10-28T11:48:30.033Z,99256.00
2022-10-28T11:50:57.257Z,99236.34
2022-10-28T11:53:37.203Z,99220.97
2022-10-28T11:56:14.015Z,99204.66
2022-10-28T11:58:46.422Z,99190.56
2022-10-28T12:01:18.765Z,99175.31
2022-10-28T12:03:51.874Z,99164.19
2022-10-28T12:06:37.577Z,99152.63
2022-10-28T12:09:20.959Z,99134.75
2022-10-28T12:12:05.474Z,99118.66
2022-10-28T12:14:38.583Z,99103.53
2022-10-28T12:17:15.457Z,99092.31
2022-10-28T12:19:51.095Z,99076.94
2022-10-28T12:22:23.330Z,99061.44
2022-10-28T12:24:51.381Z,99038.84
2022-10-28T12:27:30.082Z,99031.38
2022-10-28T12:30:03.088Z,99013.75
2022-10-28T12:32:32.267Z,98992.00
2022-10-28T12:35:02.916Z,98983.22
2022-10-28T12:37:33.880Z,98977.78
2022-10-28T12:40:05.731Z,98959.47
2022-10-28T12:42:37.074Z,98958.50
2022-10-28T12:45:06.802Z,98937.09
2022-10-28T12:47:52.388Z,98930.56
2022-10-28T12:50:24.131Z,98909.16
2022-10-28T12:52:56.215Z,98900.16
2022-10-28T12:55:23.308Z,98891.09
2022-10-28T12:57:55.719Z,98880.69
2022-10-28T13:00:28.504Z,98874.91
2022-10-28T13:02:58.284Z,98877.03
2022-10-28T13:05:27.540Z,98862.97
2022-10-28T13:08:07.004Z,98852.09
2022-10-28T13:10:48.202Z,98842.50
2022-10-28T13:13:31.221Z,98833.50
2022-10-28T13:16:16.912Z,98823.09
2022-10-28T13:18:55.560Z,98812.69
2022-10-28T13:21:40.194Z,98814.34
2022-10-28T13:24:21.069Z,98807.97
2022-10-28T13:26:48.601Z,98803.66
2022-10-28T13:29:21.401Z,98817.84
2022-10-28T13:31:49.000Z,98806.38
2022-10-28T13:34:17.848Z,98803.19
2022-10-28T13:36:57.471Z,98797.75
2022-10-28T13:39:24.838Z,98792.63
2022-10-28T13:42:24.155Z,98794.88
2022-10-28T13:44:55.587Z,98792.63
2022-10-28T13:47:24.401Z,98788.41
2022-10-28T13:50:06.871Z,98775.78
2022-10-28T13:52:33.966Z,98774.84
2022-10-28T13:55:16.218Z,98758.47
2022-10-28T13:57:44.597Z,98758.63
2022-10-28T14:00:17.604Z,98756.84
2022-10-28T14:02:48.895Z,98748.03
2022-10-28T14:05:17.563Z,98745.00
2022-10-28T14:07:58.656Z,98747.94
2022-10-28T14:10:27.392Z,98741.91
2022-10-28T14:12:54.942Z,98748.44
2022-10-28T14:15:37.165Z,98753.31
2022-10-28T14:18:37.384Z,98764.66
2022-10-28T14:21:01.796Z,98764.66
2022-10-28T14:23:29.041Z,98773.88
2022-10-28T14:25:56.300Z,98780.41
2022-10-28T14:28:29.765Z,98785.47
2022-10-28T14:31:09.341Z,98776.97
2022-10-28T14:33:37.098Z,98777.94
2022-10-28T14:36:19.536Z,98767.56
2022-10-28T14:39:05.297Z,98761.47
2022-10-28T14:41:32.984Z,98767.28
2022-10-28T14:44:03.218Z,98759.25
2022-10-28T14:46:59.646Z,98755.34
2022-10-28T14:49:37.188Z,98751.97
2022-10-28T14:52:11.645Z,98743.72
2022-10-28T14:54:48.086Z,98748.75
2022-10-28T14:57:16.585Z,98747.13
2022-10-28T14:59:44.539Z,98757.41
2022-10-28T15:02:21.040Z,98753.25
2022-10-28T15:04:57.553Z,98752.34
2022-10-28T15:07:24.768Z,98756.59
2022-10-28T15:09:53.724Z,98755.41
2022-10-28T15:12:22.667Z,98751.03
2022-10-28T15:14:53.840Z,98737.13
2022-10-28T15:17:20.877Z,98753.28
2022-10-28T15:19:49.446Z,98757.09
2022-10-28T15:22:18.602Z,98761.69
2022-10-28T15:24:55.973Z,98760.03
2022-10-28T15:27:23.740Z,98763.81
2022-10-28T15:29:51.034Z,98764.88
2022-10-28T15:32:21.135Z,98771.38
2022-10-28T15:34:48.812Z,98771.97
2022-10-28T15:37:21.350Z,98784.09
2022-10-28T15:39:58.660Z,98783.78
2022-10-28T15:42:50.224Z,98793.56
2022-10-28T15:45:24.090Z,98798.16
2022-10-28T15:47:51.861Z,98797.34
2022-10-28T15:50:48.632Z,98803.22
2022-10-28T15:53:22.619Z,98806.44
2022-10-28T15:56:07.816Z,98807.59
2022-10-28T15:58:39.292Z,98818.09
2022-10-28T16:01:26.502Z,98822.56
2022-10-28T16:03:53.751Z,98830.81
2022-10-28T16:06:23.905Z,98835.28
2022-10-28T16:09:05.643Z,98835.16
2022-10-28T16:11:36.403Z,98833.59
2022-10-28T16:14:18.824Z,98833.09
2022-10-28T16:16:46.013Z,98840.75
2022-10-28T16:19:24.163Z,98843.91
2022-10-28T16:21:51.220Z,98847.75
2022-10-28T16:24:18.275Z,98846.78
2022-10-28T16:26:45.370Z,98848.16
2022-10-28T16:29:12.397Z,98843.53
2022-10-28T16:31:41.017Z,98850.94
2022-10-28T16:34:13.726Z,98852.63
2022-10-28T16:36:40.746Z,98846.84
2022-10-28T16:39:14.211Z,98847.91
2022-10-28T16:41:41.350Z,98863.34
2022-10-28T16:44:18.159Z,98865.59
2022-10-28T16:46:45.284Z,98868.91
2022-10-28T16:49:12.295Z,98871.59
2022-10-28T16:51:39.867Z,98877.28
2022-10-28T16:54:07.544Z,98876.06
2022-10-28T16:56:34.657Z,98876.28
2022-10-28T16:59:01.707Z,98868.63
2022-10-28T17:01:28.879Z,98870.72
2022-10-28T17:03:56.011Z,98885.09
2022-10-28T17:06:23.097Z,98882.38
2022-10-28T17:09:02.412Z,98879.28
2022-10-28T17:13:58.267Z,98888.31
2022-10-28T17:16:25.462Z,98896.22
2022-10-28T17:18:52.524Z,98894.56
2022-10-28T17:21:19.813Z,98900.44
2022-10-28T17:23:46.891Z,98909.00
2022-10-28T17:26:13.941Z,98916.09
2022-10-28T17:28:41.043Z,98913.38
2022-10-28T17:31:08.478Z,98916.31
2022-10-28T17:33:35.525Z,98917.56
2022-10-28T17:36:03.147Z,98916.75
2022-10-28T17:38:30.321Z,98924.72
2022-10-28T17:40:58.005Z,98922.22
2022-10-28T17:43:25.086Z,98919.75
2022-10-28T17:45:52.270Z,98932.69
2022-10-28T17:48:19.345Z,98929.16
2022-10-28T17:50:53.313Z,98925.38
2022-10-28T17:53:21.864Z,98930.59
2022-10-28T17:55:55.860Z,98929.75
2022-10-28T17:58:23.112Z,98929.97
2022-10-28T18:00:55.478Z,98938.94
2022-10-28T18:03:22.527Z,98937.28
2022-10-28T18:05:49.611Z,98933.31
2022-10-28T18:08:16.653Z,98929.16
2022-10-28T18:10:53.326Z,98935.59
2022-10-28T18:13:21.175Z,98938.53
2022-10-28T18:15:48.251Z,98946.88
2022-10-28T18:18:15.425Z,98936.03
2022-10-28T18:20:42.530Z,98932.75
2022-10-28T18:23:09.558Z,98936.50
2022-10-28T18:25:36.715Z,98944.00
2022-10-28T18:28:04.427Z,98944.00
2022-10-28T18:30:31.906Z,98941.31
2022-10-28T18:32:58.950Z,98938.59
2022-10-28T18:35:26.100Z,98945.66
2022-10-28T18:37:54.024Z,98945.88
2022-10-28T18:40:21.202Z,98947.75
2022-10-28T18:42:48.257Z,98953.63
2022-10-28T18:45:15.326Z,98946.56
2022-10-28T18:47:44.466Z,98951.16
2022-10-28T18:50:11.520Z,98946.56
2022-10-28T18:52:38.619Z,98949.69
2022-10-28T18:55:06.030Z,98952.41
2022-10-28T18:57:33.080Z,98951.00
2022-10-28T19:02:47.963Z,98957.03
2022-10-28T19:05:15.220Z,98965.16
2022-10-28T19:07:42.299Z,98965.78
2022-10-28T19:10:09.534Z,98966.41
2022-10-28T19:12:42.779Z,98969.94
2022-10-28T19:15:12.145Z,98965.34
2022-10-28T19:17:39.169Z,98963.69
2022-10-28T19:20:06.443Z,98967.44
2022-10-28T19:22:33.605Z,98971.41
2022-10-28T19:25:00.708Z,98974.13
2022-10-28T19:27:27.825Z,98975.16
2022-10-28T19:29:55.282Z,98983.53
2022-10-28T19:32:22.367Z,98982.69
2022-10-28T19:34:49.377Z,98990.81
2022-10-28T19:37:16.421Z,98988.28
2022-10-28T19:39:43.444Z,98986.63
2022-10-28T19:42:10.507Z,99001.22
2022-10-28T19:44:37.587Z,99002.47
2022-10-28T19:47:04.636Z,99015.78
2022-10-28T19:49:37.159Z,99013.28
2022-10-28T19:52:06.464Z,99012.69
2022-10-28T19:54:33.478Z,99021.66
2022-10-28T19:57:00.555Z,99021.66
2022-10-28T19:59:27.692Z,99027.06
2022-10-28T20:01:54.797Z,99026.22
2022-10-28T20:04:21.953Z,99032.91
2022-10-28T20:06:49.034Z,99036.66
2022-10-28T20:09:16.063Z,99038.72
2022-10-28T20:11:44.522Z,99045.22
2022-10-28T20:14:12.619Z,99054.78
2022-10-28T20:16:42.677Z,99054.19
2022-10-28T20:19:10.259Z,99053.34
2022-10-28T20:21:38.146Z,99050.88
2022-10-28T20:24:06.057Z,99063.78
2022-10-28T20:26:34.156Z,99053.38
2022-10-28T20:29:04.003Z,99066.31
2022-10-28T20:31:31.827Z,99061.13
2022-10-28T20:34:00.642Z,99064.88
2022-10-28T20:36:30.987Z,99062.16
2022-10-28T20:38:59.752Z,99059.66
2022-10-28T20:41:33.701Z,99063.00
2022-10-28T20:44:02.508Z,99060.91
2022-10-28T20:46:29.823Z,99064.19
2022-10-28T20:48:57.205Z,99068.56
2022-10-28T20:51:25.415Z,99073.16
2022-10-28T20:53:52.557Z,99066.06
2022-10-28T20:56:23.952Z,99067.34
2022-10-28T20:58:51.129Z,99060.50
2022-10-28T21:01:23.481Z,99063.41
2022-10-28T21:03:53.693Z,99069.28
2022-10-28T21:06:21.135Z,99065.72
2022-10-28T21:08:48.236Z,99070.53
2022-10-28T21:11:16.456Z,99071.34
2022-10-28T21:13:43.708Z,99075.09
2022-10-28T21:16:11.880Z,99063.66
2022-10-28T21:18:39.573Z,99065.56
2022-10-28T21:21:07.008Z,99070.72
2022-10-28T21:23:34.094Z,99068.47
2022-10-28T21:26:02.767Z,99070.13
2022-10-28T21:28:30.490Z,99071.19
2022-10-28T21:31:00.826Z,99061.59
2022-10-28T21:33:28.212Z,99059.13
2022-10-28T21:35:59.136Z,99064.75
2022-10-28T21:38:27.278Z,99063.94
2022-10-28T21:41:13.093Z,99077.44
2022-10-28T21:43:41.602Z,99066.84
2022-10-28T21:46:09.115Z,99075.78
2022-10-28T21:48:36.849Z,99081.41
2022-10-28T21:51:08.491Z,99071.44
2022-10-28T21:53:39.014Z,99069.81
2022-10-28T21:56:09.078Z,99075.00
2022-10-28T21:58:40.513Z,99078.75
2022-10-28T22:01:09.040Z,99076.47
2022-10-28T22:03:36.453Z,99080.44
2022-10-28T22:06:03.689Z,99086.47
2022-10-28T22:08:30.797Z,99078.81
2022-10-28T22:11:12.194Z,99084.41
2022-10-28T22:13:39.296Z,99086.50
2022-10-28T22:16:07.563Z,99091.25
2022-10-28T22:18:35.432Z,99093.38
2022-10-28T22:21:06.510Z,99090.03
2022-10-28T22:23:33.672Z,99093.56
2022-10-28T22:26:04.633Z,99085.69
2022-10-28T22:28:32.212Z,99086.09
2022-10-28T22:30:59.848Z,99083.81
2022-10-28T22:33:27.112Z,99081.53
2022-10-28T22:36:01.168Z,99083.63
2022-10-28T22:38:28.326Z,99079.28
2022-10-28T22:41:02.914Z,99085.06
2022-10-28T22:43:30.103Z,99089.44
2022-10-28T22:45:58.158Z,99084.44
2022-10-28T22:48:25.285Z,99093.59
2022-10-28T22:50:52.758Z,99094.66
2022-10-28T22:53:19.845Z,99091.13
2022-10-28T22:55:47.358Z,99091.97
2022-10-28T22:58:15.537Z,99093.00
2022-10-28T23:00:43.034Z,99098.41
2022-10-28T23:03:10.253Z,99096.09
2022-10-28T23:05:37.390Z,99099.00
2022-10-28T23:08:04.482Z,99105.47
2022-10-28T23:10:31.637Z,99100.28
2022-10-28T23:12:59.177Z,99096.94
2022-10-28T23:15:26.498Z,99100.28
2022-10-28T23:17:53.802Z,99095.91
2022-10-28T23:20:21.897Z,99096.94
2022-10-28T23:22:49.010Z,99104.22
2022-10-28T23:25:16.355Z,99107.75
2022-10-28T23:27:43.900Z,99106.72
2022-10-28T23:30:12.281Z,99108.16
2022-10-28T23:32:40.067Z,99111.94
2022-10-28T23:35:07.299Z,99106.53
2022-10-28T23:37:34.360Z,99113.97
2022-10-28T23:40:01.552Z,99116.50
2022-10-28T23:42:28.648Z,99113.56
2022-10-28T23:44:55.694Z,99120.22
2022-10-28T23:47:22.744Z,99122.06
2022-10-28T23:49:49.776Z,99119.38
2022-10-28T23:52:16.828Z,99115.00
2022-10-28T23:54:43.934Z,99111.25
2022-10-28T23:57:11.034Z,99110.44
2022-10-28T23:59:38.060Z,99114.38
